Time;durP1;ratioP1;P1;durP2;ratioP2;P2;SDS_P1;SDS_P2;PMS_P1;PMS_P2;Temp;Humidity;BMP_temperature;BMP_pressure;BME280_temperature;BME280_humidity;BME280_pressure;Samples;Min_cycle;Max_cycle;Signal;HPM_P1;HPM_P2
2022/12/17 13:08:07;;;;;;;8.02;4.95;;;;;;;14.23;61.61;94948.28;5090514;28;20031;-78
2022/12/17 13:10:33;;;;;;;6.45;4.15;;;;;;;14.11;61.91;94948.41;5107158;28;20440;-77
2022/12/17 13:13:21;;;;;;;5.97;4.13;;;;;;;13.98;62.59;94952.06;5089536;28;20020;-77
2022/12/17 13:15:48;;;;;;;6.72;3.80;;;;;;;13.89;62.90;94952.06;5105457;28;20027;-77
2022/12/17 13:18:33;;;;;;;6.32;4.43;;;;;;;13.71;63.48;94950.03;5106702;28;20020;-77
2022/12/17 13:21:14;;;;;;;6.65;4.90;;;;;;;13.70;63.89;94945.72;5107684;28;20020;-76
2022/12/17 13:23:39;;;;;;;9.77;6.15;;;;;;;13.70;63.86;94945.72;5105919;28;20507;-76
2022/12/17 13:26:18;;;;;;;12.05;6.93;;;;;;;13.75;63.99;94949.88;5106942;28;20027;-76
2022/12/17 13:29:11;;;;;;;12.43;7.55;;;;;;;13.82;63.92;94952.38;5106941;28;20028;-76
2022/12/17 13:32:02;;;;;;;9.48;6.60;;;;;;;13.81;63.62;94942.53;5107399;28;20026;-78
2022/12/17 13:34:27;;;;;;;10.00;6.35;;;;;;;13.83;63.45;94959.44;5106076;28;20096;-75
2022/12/17 13:37:19;;;;;;;10.73;7.60;;;;;;;13.83;63.60;94962.19;5106869;27;20035;-76
2022/12/17 13:39:54;;;;;;;8.40;6.22;;;;;;;13.80;63.46;94961.09;5105780;28;20110;-76
2022/12/17 13:42:28;;;;;;;10.10;6.85;;;;;;;13.77;63.56;94964.78;5105108;28;20023;-77
2022/12/17 13:44:53;;;;;;;8.85;6.20;;;;;;;13.71;63.54;94972.16;5105485;28;20095;-77
2022/12/17 13:47:30;;;;;;;10.48;6.43;;;;;;;13.71;63.29;94980.44;5089140;28;20088;-76
2022/12/17 13:49:58;;;;;;;8.82;5.10;;;;;;;13.66;63.37;94972.75;5104753;28;20053;-77
2022/12/17 13:52:27;;;;;;;9.73;6.38;;;;;;;13.63;63.60;94984.69;5105710;28;20023;-78
2022/12/17 13:54:52;;;;;;;11.05;6.53;;;;;;;13.66;63.54;94981.03;5071431;28;20622;-78
2022/12/17 13:57:22;;;;;;;11.52;6.50;;;;;;;13.68;63.51;94977.81;5106997;28;20061;-77
2022/12/17 13:59:58;;;;;;;8.52;6.05;;;;;;;13.76;63.29;94987.31;5105942;28;20020;-78
2022/12/17 14:02:31;;;;;;;10.32;7.03;;;;;;;13.71;63.43;94974.13;5105063;28;20038;-78
2022/12/17 14:05:01;;;;;;;8.98;6.80;;;;;;;13.70;63.14;94981.63;5088581;28;20040;-79
2022/12/17 14:07:28;;;;;;;11.32;6.97;;;;;;;13.64;63.50;94979.94;5105142;28;20412;-75
2022/12/17 14:09:54;;;;;;;9.05;6.47;;;;;;;13.65;63.62;94978.69;5073497;28;20106;-77
2022/12/17 14:12:20;;;;;;;11.57;7.90;;;;;;;13.70;63.39;94989.91;5089085;28;20486;-77
2022/12/17 14:14:50;;;;;;;10.43;7.88;;;;;;;13.63;63.56;94992.22;5106237;28;20035;-77
2022/12/17 14:17:44;;;;;;;12.00;8.05;;;;;;;13.55;63.72;94992.50;5089563;28;20023;-77
2022/12/17 14:20:29;;;;;;;12.68;7.93;;;;;;;13.54;63.68;94990.97;5088153;28;20103;-76
2022/12/17 14:23:15;;;;;;;9.70;7.45;;;;;;;13.55;63.81;95006.31;5105232;28;20039;-77
2022/12/17 14:25:42;;;;;;;9.95;7.10;;;;;;;13.53;63.57;94994.94;5088132;28;20077;-78
2022/12/17 14:28:28;;;;;;;10.20;6.85;;;;;;;13.53;63.38;94997.72;5089334;28;20105;-78
2022/12/17 14:31:13;;;;;;;12.45;7.38;;;;;;;13.50;63.11;94992.31;5090041;28;20161;-77
2022/12/17 14:33:39;;;;;;;11.52;8.02;;;;;;;13.41;63.56;94989.50;5104776;28;20024;-78
2022/12/17 14:36:28;;;;;;;11.98;7.13;;;;;;;13.35;63.69;94996.84;5106878;28;20500;-77
2022/12/17 14:39:00;;;;;;;10.68;7.60;;;;;;;13.32;64.20;95001.28;5104790;28;20051;-79
2022/12/17 14:44:24;;;;;;;16.00;10.23;;;;;;;13.23;64.03;95015.03;5091354;28;20073;-77
2022/12/17 14:46:50;;;;;;;12.50;8.60;;;;;;;13.19;63.89;95026.22;5104295;28;20168;-77
2022/12/17 14:49:19;;;;;;;14.98;8.38;;;;;;;13.12;64.68;95023.69;5088420;28;20102;-76
2022/12/17 14:51:44;;;;;;;15.60;8.70;;;;;;;13.02;64.85;95022.13;5104706;28;20030;-77
2022/12/17 14:54:21;;;;;;;11.13;8.57;;;;;;;12.99;64.85;95032.06;5071521;28;20016;-79
2022/12/17 14:56:47;;;;;;;14.15;9.18;;;;;;;13.00;64.96;95032.81;5108867;28;20034;-76
2022/12/17 14:59:35;;;;;;;12.77;9.10;;;;;;;12.93;65.10;95033.84;5107985;28;20061;-77
2022/12/17 15:02:13;;;;;;;15.68;9.32;;;;;;;12.93;65.23;95033.09;5109090;28;20064;-77
2022/12/17 15:04:38;;;;;;;16.58;11.13;;;;;;;12.88;65.27;95028.91;5108912;28;20102;-77
2022/12/17 15:07:04;;;;;;;20.00;13.48;;;;;;;12.86;65.73;95034.13;5091405;28;20508;-78
2022/12/17 15:09:37;;;;;;;19.15;14.98;;;;;;;12.82;65.79;95027.94;5092393;28;20120;-76
2022/12/17 15:12:02;;;;;;;24.95;16.80;;;;;;;12.81;65.82;95042.19;5107697;28;20047;-75
2022/12/17 15:14:28;;;;;;;24.52;17.05;;;;;;;12.69;65.95;95039.06;5110062;28;20077;-78
2022/12/17 15:16:55;;;;;;;17.83;11.55;;;;;;;12.62;66.14;95049.56;5109133;28;20039;-77
2022/12/17 15:19:21;;;;;;;22.30;14.60;;;;;;;12.54;66.32;95048.25;5093400;28;20028;-80
2022/12/17 15:21:46;;;;;;;26.70;16.42;;;;;;;12.47;66.86;95057.56;5091862;28;20028;-77
2022/12/17 15:24:14;;;;;;;27.17;16.20;;;;;;;12.43;67.01;95054.13;5108424;28;20489;-77
2022/12/17 15:26:40;;;;;;;37.13;20.42;;;;;;;12.38;67.12;95060.22;5091374;28;20041;-78
2022/12/17 15:29:05;;;;;;;31.50;18.55;;;;;;;12.34;67.20;95071.38;5107395;28;20031;-78
2022/12/17 15:31:31;;;;;;;28.55;15.93;;;;;;;12.34;67.27;95074.13;5091788;28;20024;-77
2022/12/17 15:33:57;;;;;;;26.27;16.58;;;;;;;12.33;67.29;95069.84;5107195;28;20035;-78
2022/12/17 15:36:22;;;;;;;24.65;16.05;;;;;;;12.31;67.19;95075.00;5108634;28;20028;-77
2022/12/17 15:38:47;;;;;;;31.88;19.35;;;;;;;12.25;67.12;95068.53;5108773;28;20465;-77
2022/12/17 15:43:57;;;;;;;29.92;18.40;;;;;;;12.27;67.31;95073.59;5109506;28;20046;-79
2022/12/17 15:46:22;;;;;;;24.05;17.42;;;;;;;12.21;67.18;95070.63;5108531;28;20405;-76
2022/12/17 15:48:48;;;;;;;26.83;18.80;;;;;;;12.18;67.32;95075.03;5109643;28;20081;-78
2022/12/17 15:51:13;;;;;;;25.60;19.15;;;;;;;12.16;67.22;95076.72;5107264;28;20102;-76
2022/12/17 15:53:39;;;;;;;28.27;18.17;;;;;;;12.14;67.30;95068.09;5109719;28;20026;-77
2022/12/17 15:56:06;;;;;;;27.98;19.80;;;;;;;12.10;67.24;95071.00;5107521;28;20422;-78
2022/12/17 15:58:31;;;;;;;34.08;20.83;;;;;;;12.08;67.33;95070.66;5108318;28;20034;-78
2022/12/17 16:00:57;;;;;;;31.65;21.73;;;;;;;12.08;67.40;95078.91;5109622;28;20023;-77
2022/12/17 16:03:25;;;;;;;34.38;23.65;;;;;;;12.02;67.43;95075.19;5107528;28;20032;-78
2022/12/17 16:05:52;;;;;;;41.05;25.38;;;;;;;11.99;67.22;95089.84;5107789;28;20043;-77
2022/12/17 16:08:17;;;;;;;37.03;25.77;;;;;;;11.96;67.41;95088.72;5108838;28;20030;-78
2022/12/17 16:10:43;;;;;;;40.00;26.65;;;;;;;11.93;67.20;95100.66;5109427;28;20028;-77
2022/12/17 16:13:08;;;;;;;33.85;24.65;;;;;;;11.91;67.86;95096.78;5108603;28;20152;-77
2022/12/17 16:15:34;;;;;;;33.05;24.35;;;;;;;11.86;68.07;95106.34;5109148;28;20020;-78
2022/12/17 16:17:59;;;;;;;37.88;25.60;;;;;;;11.81;67.74;95109.66;5089942;28;20023;-77
2022/12/17 16:20:25;;;;;;;29.95;22.10;;;;;;;11.78;68.08;95112.53;5108492;28;20505;-76
2022/12/17 16:22:50;;;;;;;32.42;22.73;;;;;;;11.66;67.98;95106.56;5090472;28;20092;-78
2022/12/17 16:25:16;;;;;;;42.85;29.17;;;;;;;11.66;67.41;95120.34;5089524;28;20020;-76
2022/12/17 16:27:41;;;;;;;46.85;32.97;;;;;;;11.61;67.42;95123.63;5090919;28;20028;-76
2022/12/17 16:30:08;;;;;;;48.55;33.03;;;;;;;11.55;67.58;95122.63;5107282;28;20024;-77
2022/12/17 16:32:33;;;;;;;41.63;30.35;;;;;;;11.52;68.18;95120.75;5109235;28;20034;-76
2022/12/17 16:34:59;;;;;;;48.08;32.58;;;;;;;11.40;68.53;95136.03;5106900;28;20020;-78
2022/12/17 16:37:24;;;;;;;41.25;27.33;;;;;;;11.41;69.17;95126.59;5108823;28;20032;-76
2022/12/17 16:39:50;;;;;;;45.60;29.30;;;;;;;11.38;69.06;95137.69;5107000;28;20482;-78
2022/12/17 16:42:15;;;;;;;45.63;27.92;;;;;;;11.28;69.64;95138.75;5108144;28;20055;-76
2022/12/17 16:44:41;;;;;;;40.55;26.20;;;;;;;11.27;69.47;95137.22;5109033;28;20426;-76
2022/12/17 16:47:06;;;;;;;40.67;27.95;;;;;;;11.25;69.54;95136.88;5105938;28;20490;-76
2022/12/17 16:49:32;;;;;;;37.72;27.63;;;;;;;11.24;68.84;95144.38;5107486;28;20504;-76
2022/12/17 16:51:58;;;;;;;39.67;28.08;;;;;;;11.22;68.55;95141.28;5106311;28;20413;-77
2022/12/17 16:54:25;;;;;;;44.90;28.90;;;;;;;11.17;68.61;95147.31;5107187;28;20103;-76
2022/12/17 16:56:50;;;;;;;46.40;28.83;;;;;;;11.16;68.60;95154.78;5107954;28;20095;-78
2022/12/17 16:59:16;;;;;;;42.50;28.80;;;;;;;11.15;68.63;95156.00;5107784;27;20027;-77
2022/12/17 17:01:45;;;;;;;42.28;30.30;;;;;;;11.14;68.46;95159.19;5108202;28;20035;-78
2022/12/17 17:04:11;;;;;;;40.67;29.38;;;;;;;11.13;68.37;95149.41;5106097;28;20035;-75
2022/12/17 17:06:47;;;;;;;44.75;31.02;;;;;;;11.10;68.63;95164.78;5108500;28;20040;-76
2022/12/17 17:09:13;;;;;;;39.00;28.23;;;;;;;11.06;68.66;95158.59;5107131;28;20023;-77
2022/12/17 17:11:38;;;;;;;46.50;32.03;;;;;;;11.05;68.77;95167.28;5107003;28;20023;-75
2022/12/17 17:14:04;;;;;;;52.88;34.78;;;;;;;11.03;68.61;95172.47;5089252;28;20019;-77
2022/12/17 17:16:30;;;;;;;47.10;30.75;;;;;;;10.97;68.41;95166.72;5105798;28;20030;-79
2022/12/17 17:18:55;;;;;;;44.08;30.95;;;;;;;10.98;68.03;95186.75;5088875;28;20519;-79
2022/12/17 17:21:25;;;;;;;44.60;30.98;;;;;;;10.95;67.67;95182.88;5105324;28;20027;-81
2022/12/17 17:23:58;;;;;;;45.25;32.13;;;;;;;10.85;67.69;95172.94;5106857;28;20473;-81
2022/12/17 17:26:24;;;;;;;50.65;31.55;;;;;;;10.83;67.98;95181.59;5106466;28;20425;-79
2022/12/17 17:28:50;;;;;;;47.60;32.45;;;;;;;10.83;67.88;95189.84;5089611;28;20028;-78
2022/12/17 17:31:16;;;;;;;44.22;31.08;;;;;;;10.80;67.83;95189.97;5090283;28;20031;-80
2022/12/17 17:33:43;;;;;;;45.80;31.30;;;;;;;10.78;68.43;95201.41;5092223;28;20019;-81
2022/12/17 17:36:11;;;;;;;48.40;32.25;;;;;;;10.78;68.88;95204.16;5108280;28;20485;-80
2022/12/17 17:38:38;;;;;;;47.28;30.85;;;;;;;10.76;68.83;95206.53;5105666;28;20027;-81
2022/12/17 17:41:04;;;;;;;47.13;31.42;;;;;;;10.77;68.49;95210.81;5089480;28;20030;-80
2022/12/17 17:43:30;;;;;;;46.22;32.63;;;;;;;10.71;68.49;95211.78;5104965;28;20028;-80
2022/12/17 17:45:55;;;;;;;46.60;31.38;;;;;;;10.66;68.54;95226.03;5089232;28;20455;-82
2022/12/17 17:48:21;;;;;;;51.08;33.45;;;;;;;10.65;67.81;95225.28;5105387;28;20020;-83
2022/12/17 17:51:14;;;;;;;48.45;33.20;;;;;;;10.62;67.87;95223.41;5106838;28;20024;-83
2022/12/17 17:53:41;;;;;;;44.30;29.33;;;;;;;10.54;68.57;95224.75;5106362;28;20038;-84
2022/12/17 17:56:13;;;;;;;46.00;30.60;;;;;;;10.49;68.93;95231.53;5105777;28;20066;-80
2022/12/17 17:58:39;;;;;;;46.20;31.57;;;;;;;10.47;68.83;95230.44;5106326;28;20038;-77
2022/12/17 18:01:13;;;;;;;49.45;34.80;;;;;;;10.46;68.63;95237.13;5104425;28;20277;-79
2022/12/17 18:03:39;;;;;;;66.97;40.13;;;;;;;10.44;69.20;95239.56;5107042;28;20024;-79
2022/12/17 18:06:06;;;;;;;77.40;50.22;;;;;;;10.44;69.43;95245.06;5106181;28;20035;-76
2022/12/17 18:08:32;;;;;;;62.50;42.25;;;;;;;10.45;69.63;95255.59;5071402;28;20020;-75
2022/12/17 18:10:58;;;;;;;60.05;41.45;;;;;;;10.45;69.02;95254.84;5105381;28;20124;-74
2022/12/17 18:16:07;;;;;;;;;;;;;;;10.31;69.28;95270.44;5106822;28;20031;-77
2022/12/17 18:18:32;;;;;;;35.90;25.58;;;;;;;10.16;70.04;95271.94;5107314;28;20340;-78
2022/12/17 18:21:09;;;;;;;37.63;25.33;;;;;;;9.99;70.82;95273.88;5106526;28;20024;-77
2022/12/17 18:23:34;;;;;;;32.35;22.17;;;;;;;9.93;71.70;95275.56;5088536;28;20430;-80
2022/12/17 18:26:07;;;;;;;26.10;19.23;;;;;;;9.86;71.98;95281.19;5087581;28;20027;-77
2022/12/17 18:28:32;;;;;;;22.90;17.13;;;;;;;9.78;72.51;95283.31;5114583;27;20417;-81
2022/12/17 18:30:58;;;;;;;18.55;13.48;;;;;;;9.76;72.88;95285.72;5091441;28;20028;-82
2022/12/17 18:33:24;;;;;;;17.15;11.18;;;;;;;9.60;73.90;95285.63;5110117;28;20084;-82
2022/12/17 18:35:49;;;;;;;18.42;11.18;;;;;;;9.43;74.66;95287.53;5091634;28;20020;-81
2022/12/17 18:38:15;;;;;;;17.83;11.77;;;;;;;9.30;75.19;95286.59;5092867;28;20029;-80
2022/12/17 18:40:40;;;;;;;22.25;11.82;;;;;;;9.30;75.01;95292.84;5111887;27;20418;-80
2022/12/17 18:43:22;;;;;;;17.00;12.88;;;;;;;9.30;75.32;95297.56;5129037;27;20318;-82
2022/12/17 18:45:49;;;;;;;17.77;11.90;;;;;;;9.23;75.67;95303.97;5109692;28;20471;-80
2022/12/17 18:48:14;;;;;;;19.73;12.55;;;;;;;9.19;75.95;95306.00;5108115;28;20039;-77
2022/12/17 18:50:40;;;;;;;18.60;12.85;;;;;;;9.21;75.94;95314.56;5093091;28;20509;-84
2022/12/17 18:53:05;;;;;;;19.42;12.55;;;;;;;9.23;75.69;95317.69;5112808;28;20039;-83
2022/12/17 18:55:31;;;;;;;15.70;11.45;;;;;;;9.20;76.08;95323.22;5109548;28;20028;-82
2022/12/17 18:57:56;;;;;;;17.20;11.80;;;;;;;9.21;75.85;95324.75;5111380;27;20386;-85
2022/12/17 19:00:21;;;;;;;17.23;11.88;;;;;;;9.18;75.94;95334.63;5109512;28;20016;-81
2022/12/17 19:02:47;;;;;;;18.20;12.30;;;;;;;9.14;76.11;95333.91;5110912;28;20027;-81
2022/12/17 19:05:12;;;;;;;16.83;12.38;;;;;;;9.22;75.56;95338.06;5108070;28;20096;-83
2022/12/17 19:07:38;;;;;;;18.38;12.57;;;;;;;9.26;75.25;95338.78;5109892;28;20024;-80
2022/12/17 19:10:04;;;;;;;15.70;11.30;;;;;;;9.26;75.29;95340.75;5090955;28;20028;-82
2022/12/17 19:12:29;;;;;;;15.02;11.35;;;;;;;9.23;75.33;95345.13;5109725;28;20438;-82
2022/12/17 19:14:55;;;;;;;15.80;12.73;;;;;;;9.24;75.44;95354.13;5092348;27;20027;-81
2022/12/17 19:17:20;;;;;;;15.57;11.88;;;;;;;9.39;74.72;95362.88;5129021;27;20134;-83
2022/12/17 19:19:46;;;;;;;16.27;12.07;;;;;;;9.42;74.39;95357.31;5132696;27;20088;-80
2022/12/17 19:22:11;;;;;;;17.73;12.60;;;;;;;9.47;73.89;95376.06;5136117;27;20076;-80
2022/12/17 19:24:37;;;;;;;17.92;12.25;;;;;;;9.43;74.17;95367.09;5130437;27;20023;-84
2022/12/17 19:27:03;;;;;;;18.25;13.13;;;;;;;9.44;74.03;95367.88;5127843;27;20027;-82
2022/12/17 19:29:28;;;;;;;15.20;11.50;;;;;;;9.40;74.23;95367.91;5130779;27;20027;-76
2022/12/17 19:31:54;;;;;;;14.60;11.68;;;;;;;9.31;74.34;95371.22;5128860;27;20569;-78
2022/12/17 19:34:19;;;;;;;18.17;12.85;;;;;;;9.33;74.40;95373.53;5126480;27;20042;-81
2022/12/17 19:36:45;;;;;;;16.65;12.10;;;;;;;9.32;74.38;95382.97;5111037;27;20031;-80
2022/12/17 19:39:21;;;;;;;17.45;11.95;;;;;;;9.31;74.30;95378.69;5090960;28;20063;-78
2022/12/17 19:41:46;;;;;;;18.45;12.77;;;;;;;9.34;74.22;95379.81;5092324;28;20047;-78
2022/12/17 19:44:14;;;;;;;18.20;12.68;;;;;;;9.36;74.31;95382.91;5111300;28;20023;-85
2022/12/17 19:46:39;;;;;;;21.85;13.65;;;;;;;9.39;74.07;95374.59;5092296;28;20114;-83
2022/12/17 19:49:06;;;;;;;17.17;11.73;;;;;;;9.38;74.17;95381.28;5084092;28;20311;-83
2022/12/17 19:51:31;;;;;;;17.30;11.73;;;;;;;9.45;73.58;95383.13;5122618;27;20015;-81
2022/12/17 19:53:57;;;;;;;18.67;11.18;;;;;;;9.39;73.78;95385.59;5100673;28;20019;-87
2022/12/17 19:56:27;;;;;;;16.30;11.55;;;;;;;9.34;74.01;95388.03;5107478;27;20030;-88
2022/12/17 19:58:57;;;;;;;15.70;11.18;;;;;;;9.30;74.00;95391.63;5112999;27;20099;-83
2022/12/17 20:01:24;;;;;;;17.70;12.48;;;;;;;9.30;73.87;95397.13;5093516;27;20054;-86
2022/12/17 20:03:50;;;;;;;20.25;11.73;;;;;;;9.24;73.78;95396.03;5129104;27;20050;-84
2022/12/17 20:06:16;;;;;;;16.10;11.80;;;;;;;9.14;73.77;95396.97;5110230;27;20409;-87
2022/12/17 20:08:42;;;;;;;19.02;12.75;;;;;;;9.12;73.78;95404.84;5112017;27;20076;-87
2022/12/17 20:13:57;;;;;;;16.95;11.20;;;;;;;8.97;74.26;95412.50;5107327;28;20532;-88
2022/12/17 20:16:22;;;;;;;18.33;13.00;;;;;;;8.96;74.29;95415.69;5095672;27;20031;-86
2022/12/17 20:18:48;;;;;;;17.05;13.23;;;;;;;8.89;74.46;95424.78;5125184;27;20050;-84
2022/12/17 20:21:13;;;;;;;23.45;13.20;;;;;;;8.88;74.35;95420.47;5130060;27;20106;-84
2022/12/17 20:23:39;;;;;;;21.35;13.60;;;;;;;8.92;74.22;95434.16;5112751;27;20449;-84
2022/12/17 20:26:09;;;;;;;18.83;12.80;;;;;;;8.92;73.97;95434.16;5143528;27;20540;-89
2022/12/17 20:28:34;;;;;;;18.65;13.00;;;;;;;8.91;73.93;95429.84;5128668;27;20050;-82
2022/12/17 20:31:01;;;;;;;18.02;13.05;;;;;;;8.89;73.75;95429.47;5110812;27;20104;-81
2022/12/17 20:33:26;;;;;;;18.48;12.60;;;;;;;8.83;73.83;95436.59;5128549;27;20027;-86
2022/12/17 20:35:52;;;;;;;18.40;12.65;;;;;;;8.80;73.88;95443.72;5110112;27;20550;-88
2022/12/17 20:38:18;;;;;;;19.20;12.98;;;;;;;8.73;74.05;95441.84;5129026;27;20023;-87
2022/12/17 20:40:44;;;;;;;19.67;12.43;;;;;;;8.71;74.25;95446.94;5126563;27;20034;-83
2022/12/17 20:43:09;;;;;;;19.38;13.02;;;;;;;8.65;74.16;95451.34;5125001;27;20098;-86
2022/12/17 20:45:35;;;;;;;18.42;12.88;;;;;;;8.67;74.11;95453.69;5116599;27;20035;-85
2022/12/17 20:48:00;;;;;;;15.48;11.40;;;;;;;8.65;74.03;95461.53;5121108;27;20016;-86
2022/12/17 20:50:26;;;;;;;17.65;12.18;;;;;;;8.59;74.18;95466.69;5124264;27;20040;-86
2022/12/17 20:52:51;;;;;;;16.33;11.18;;;;;;;8.59;74.00;95472.16;5097473;27;20110;-87
2022/12/17 20:55:17;;;;;;;15.45;11.10;;;;;;;8.59;74.17;95482.34;5110914;28;20035;-84
2022/12/17 20:57:42;;;;;;;15.85;11.25;;;;;;;8.60;74.28;95483.91;5110392;27;20110;-84
2022/12/17 21:00:09;;;;;;;18.08;11.30;;;;;;;8.60;74.11;95486.66;5108427;28;20455;-88
2022/12/17 21:02:35;;;;;;;16.92;12.05;;;;;;;8.58;73.94;95487.06;5106099;28;20137;-82
2022/12/17 21:05:00;;;;;;;15.60;10.93;;;;;;;8.58;74.00;95498.03;5102122;27;20035;-89
2022/12/17 21:07:26;;;;;;;18.92;11.68;;;;;;;8.58;73.55;95492.53;5111181;27;20254;-85
2022/12/17 21:09:52;;;;;;;14.98;10.48;;;;;;;8.61;73.41;95494.47;5144728;27;20023;-84
2022/12/17 21:12:17;;;;;;;16.00;10.52;;;;;;;8.67;73.17;95498.31;5123127;27;20015;-86
2022/12/17 21:14:42;;;;;;;15.55;11.70;;;;;;;8.63;73.12;95497.56;5123337;27;20031;-84
2022/12/17 21:17:08;;;;;;;14.38;10.20;;;;;;;8.64;73.05;95503.84;5111611;27;20039;-84
2022/12/17 21:19:33;;;;;;;14.65;10.25;;;;;;;8.62;73.30;95509.72;5109833;27;20022;-84
2022/12/17 21:21:59;;;;;;;17.70;11.18;;;;;;;8.65;73.20;95502.63;5129157;27;20027;-88
2022/12/17 21:24:24;;;;;;;14.73;10.13;;;;;;;8.66;72.77;95506.94;5092489;27;20038;-89
2022/12/17 21:26:50;;;;;;;14.88;10.98;;;;;;;8.62;72.93;95507.00;5110752;27;20023;-89
2022/12/17 21:29:15;;;;;;;16.08;10.40;;;;;;;8.66;72.62;95515.16;5139471;27;20446;-88
2022/12/17 21:31:47;;;;;;;14.00;9.63;;;;;;;8.66;72.56;95524.19;5140251;27;20052;-81
2022/12/17 21:34:16;;;;;;;17.10;11.05;;;;;;;8.64;72.32;95518.31;5133243;27;20031;-85
2022/12/17 21:36:41;;;;;;;15.93;10.07;;;;;;;8.65;71.97;95525.34;5125710;27;20023;-83
2022/12/17 21:39:08;;;;;;;15.10;10.68;;;;;;;8.63;72.11;95521.47;5106953;27;20075;-85
2022/12/17 21:41:34;;;;;;;11.43;8.05;;;;;;;8.57;72.02;95521.13;5104751;28;20110;-81
2022/12/17 21:44:01;;;;;;;12.75;8.48;;;;;;;8.51;71.94;95526.28;5114518;27;20019;-87
2022/12/17 21:46:27;;;;;;;13.82;9.32;;;;;;;8.54;71.86;95535.66;5114913;27;20505;-88
2022/12/17 21:48:52;;;;;;;17.02;11.38;;;;;;;8.52;71.63;95530.59;5105335;28;20108;-85
2022/12/17 21:51:18;;;;;;;16.35;9.32;;;;;;;8.46;71.57;95529.47;5106520;28;20028;-86
2022/12/17 21:53:43;;;;;;;15.27;8.77;;;;;;;8.47;71.04;95541.22;5118148;27;20031;-79
2022/12/17 21:56:14;;;;;;;15.00;9.20;;;;;;;8.38;70.96;95536.22;5109604;27;20035;-77
2022/12/17 21:58:40;;;;;;;20.05;10.30;;;;;;;8.41;70.99;95548.31;5109700;27;20024;-83
2022/12/17 22:01:09;;;;;;;10.60;8.32;;;;;;;8.35;70.78;95544.44;5106867;27;20023;-82
2022/12/17 22:03:34;;;;;;;8.30;6.53;;;;;;;8.27;70.40;95546.50;5126401;27;20075;-83
2022/12/17 22:06:10;;;;;;;8.70;6.47;;;;;;;8.22;70.34;95550.44;5118478;27;20043;-81
2022/12/17 22:08:36;;;;;;;8.27;6.63;;;;;;;8.18;70.49;95552.44;5126656;27;20019;-78
2022/12/17 22:11:01;;;;;;;6.88;6.03;;;;;;;8.24;70.31;95553.56;5121836;28;20472;-81
2022/12/17 22:16:11;;;;;;;;;;;;;;;8.23;70.45;95562.97;5106178;27;20087;-79
2022/12/17 22:18:39;;;;;;;8.65;5.90;;;;;;;8.12;70.45;95562.28;5105942;28;19923;-83
2022/12/17 22:21:04;;;;;;;8.98;6.22;;;;;;;8.11;70.67;95558.00;5105440;28;20028;-81
2022/12/17 22:23:30;;;;;;;8.63;5.85;;;;;;;8.09;70.11;95554.13;5104870;28;20070;-81
2022/12/17 22:25:55;;;;;;;9.43;5.95;;;;;;;8.09;69.88;95554.88;5088462;28;20028;-86
2022/12/17 22:28:21;;;;;;;12.23;6.75;;;;;;;8.12;69.91;95564.25;5114689;28;20032;-83
2022/12/17 22:33:30;;;;;;;7.10;5.32;;;;;;;7.99;69.36;95569.44;5130548;28;20109;-82
2022/12/17 22:36:01;;;;;;;7.18;4.75;;;;;;;7.83;69.36;95560.97;5119891;28;20048;-81
2022/12/17 22:38:27;;;;;;;5.15;4.30;;;;;;;7.87;69.49;95564.47;5116535;28;20061;-84
2022/12/17 22:40:52;;;;;;;5.68;4.80;;;;;;;7.77;69.42;95568.84;5105153;28;20054;-77
2022/12/17 22:43:30;;;;;;;11.48;5.20;;;;;;;7.82;69.16;95579.34;5117402;28;20469;-77
2022/12/17 22:45:59;;;;;;;8.20;5.65;;;;;;;7.77;69.20;95577.06;5104813;28;20313;-77
2022/12/17 22:48:24;;;;;;;11.30;6.65;;;;;;;7.75;69.39;95579.44;5111486;27;20485;-78
2022/12/17 22:50:50;;;;;;;6.90;4.45;;;;;;;7.68;69.29;95584.94;5111470;28;20035;-78
2022/12/17 22:53:15;;;;;;;5.05;4.28;;;;;;;7.51;69.33;95574.88;5113363;27;20386;-79
2022/12/17 22:55:41;;;;;;;6.50;5.13;;;;;;;7.41;69.83;95588.25;5115157;28;20023;-78
2022/12/17 22:58:06;;;;;;;7.28;4.60;;;;;;;7.42;69.89;95584.34;5110204;28;20027;-78
2022/12/17 23:00:33;;;;;;;6.53;5.05;;;;;;;7.35;69.94;95578.91;5126020;28;20404;-85
2022/12/17 23:02:58;;;;;;;8.05;5.22;;;;;;;7.28;69.88;95594.56;5107401;28;20114;-80
2022/12/17 23:05:24;;;;;;;6.47;5.22;;;;;;;7.23;70.08;95595.78;5122251;28;20517;-79
2022/12/17 23:07:50;;;;;;;5.93;4.47;;;;;;;7.25;69.40;95584.44;5105894;28;20148;-78
2022/12/17 23:10:16;;;;;;;6.90;4.60;;;;;;;7.15;69.62;95596.97;5107103;28;20027;-81
2022/12/17 23:12:50;;;;;;;6.38;4.57;;;;;;;7.14;69.79;95607.16;5125039;28;20019;-77
2022/12/17 23:15:16;;;;;;;7.93;5.03;;;;;;;7.05;69.84;95609.53;5126711;27;20035;-76
2022/12/17 23:17:42;;;;;;;6.22;4.57;;;;;;;7.01;70.00;95618.94;5122309;27;20027;-76
2022/12/17 23:20:08;;;;;;;6.25;4.70;;;;;;;6.90;69.95;95613.50;5118176;27;20020;-75
2022/12/17 23:22:33;;;;;;;6.97;4.80;;;;;;;6.82;70.21;95615.47;5118305;27;20072;-75
2022/12/17 23:24:59;;;;;;;5.88;4.43;;;;;;;6.76;70.44;95627.19;5118054;27;20022;-76
2022/12/17 23:27:24;;;;;;;8.75;5.97;;;;;;;6.70;70.63;95628.78;5118423;27;20096;-77
2022/12/17 23:29:50;;;;;;;7.90;5.90;;;;;;;6.67;70.62;95632.31;5117549;27;20031;-76
2022/12/17 23:32:15;;;;;;;8.23;5.82;;;;;;;6.63;69.85;95624.91;5122241;27;20019;-77
2022/12/17 23:34:41;;;;;;;12.60;7.00;;;;;;;6.54;70.19;95627.28;5116929;27;20023;-76
2022/12/17 23:37:06;;;;;;;7.95;6.25;;;;;;;6.55;70.16;95637.03;5116933;27;20023;-77
2022/12/17 23:39:32;;;;;;;8.63;6.05;;;;;;;6.55;69.80;95653.41;5118847;27;20115;-77
2022/12/17 23:41:57;;;;;;;8.80;6.10;;;;;;;6.49;69.99;95649.53;5115229;27;20020;-79
2022/12/17 23:44:23;;;;;;;9.75;6.65;;;;;;;6.46;70.06;95649.53;5116069;27;20034;-76
2022/12/17 23:46:48;;;;;;;8.63;6.57;;;;;;;6.43;70.08;95663.97;5117905;27;20007;-78
2022/12/17 23:49:14;;;;;;;8.10;6.00;;;;;;;6.41;70.23;95669.81;5115628;27;20496;-78
2022/12/17 23:51:39;;;;;;;7.78;5.55;;;;;;;6.36;70.12;95657.34;5117266;27;20448;-77
2022/12/17 23:54:05;;;;;;;8.05;5.88;;;;;;;6.20;70.18;95648.78;5117576;27;20038;-76
2022/12/17 23:56:30;;;;;;;9.95;6.60;;;;;;;6.17;70.49;95659.69;5108115;27;20032;-78
2022/12/17 23:58:57;;;;;;;9.30;6.97;;;;;;;6.15;70.30;95673.75;5106893;28;20444;-78
